CYWK

Wabush Airport

Wabush, Canada
METAR CYWK 190642Z AUTO 21004KT 9SM -SN OVC050 M25/M28 A2957 RMK SLP071
Observed Flight Rules
Jan-19 @ 06:42 UTC (36 minutes ago) Visual Flight Rules
Wind Visibility Clouds Conditions
210° at 4 knots 9 miles
  • Overcast at 5,000' AGL
  • Light Snow
Temperatures Readings
Current -25°C / -13°F
Dewpoint -28°C / -18°F
Humidity 76%
Altimeter 29.57" Hg
Pressure 1007.1 hPa
Elevation 551
METAR CYWK 190642Z AUTO 21004KT 9SM -SN OVC050 M25/M28 A2957 RMK SLP071
Observed Flight Rules
Jan-19 @ 06:42 UTC
(36 minutes ago)
VFR
Wind Visibility
210° at 4 knots 9 miles
Clouds
  • Overcast at 5,000' AGL
Conditions
  • Light Snow
Temperature Dewpoint
-25°C / -13°F -28°C / -18°F
Humidity Altimeter Pressure
76% 29.57" Hg 1007.1 hPa